Time;durP1;ratioP1;P1;durP2;ratioP2;P2;SDS_P1;SDS_P2;PMS_P1;PMS_P2;Temp;Humidity;BMP_temperature;BMP_pressure;BME280_temperature;BME280_humidity;BME280_pressure;Samples;Min_cycle;Max_cycle;Signal;HPM_P1;HPM_P2
2021/06/14 00:01:13;;;;;;;4.57;2.60;;;14.70;99.90;;;;;;5073805;28;20575;-57
2021/06/14 00:03:40;;;;;;;3.73;2.33;;;14.60;99.90;;;;;;5073625;28;20205;-57
2021/06/14 00:06:07;;;;;;;2.73;2.20;;;14.60;99.90;;;;;;5073677;28;20232;-57
2021/06/14 00:08:33;;;;;;;6.57;2.40;;;14.50;99.90;;;;;;5073384;28;20205;-57
2021/06/14 00:11:00;;;;;;;5.67;2.77;;;14.50;99.90;;;;;;5073709;28;20216;-57
2021/06/14 00:13:30;;;;;;;5.43;2.37;;;14.40;99.90;;;;;;5073352;28;20232;-57
2021/06/14 00:15:56;;;;;;;3.17;2.30;;;14.40;99.90;;;;;;5073621;28;20248;-57
2021/06/14 00:18:23;;;;;;;3.47;2.30;;;14.30;99.90;;;;;;5073339;28;20247;-57
2021/06/14 00:20:54;;;;;;;5.57;2.60;;;14.30;99.90;;;;;;5073600;28;20205;-57
2021/06/14 00:23:22;;;;;;;3.03;2.50;;;14.20;99.90;;;;;;5073312;28;20208;-57
2021/06/14 00:25:49;;;;;;;3.83;2.50;;;14.10;99.90;;;;;;5073804;28;20229;-57
2021/06/14 00:28:17;;;;;;;4.03;2.37;;;14.00;99.90;;;;;;5073181;28;20212;-57
2021/06/14 00:30:49;;;;;;;3.00;2.47;;;14.00;99.90;;;;;;5073593;28;20209;-57
2021/06/14 00:33:17;;;;;;;5.33;2.60;;;14.00;99.90;;;;;;5073337;28;20265;-57
2021/06/14 00:35:45;;;;;;;6.27;2.63;;;13.90;99.90;;;;;;5073008;28;20716;-57
2021/06/14 00:38:12;;;;;;;4.60;2.30;;;14.00;99.90;;;;;;5073126;28;20235;-57
2021/06/14 00:40:39;;;;;;;3.07;2.23;;;14.00;99.90;;;;;;5072473;28;20688;-57
2021/06/14 00:43:07;;;;;;;5.90;2.70;;;14.00;99.90;;;;;;5072949;28;20608;-57
2021/06/14 00:45:36;;;;;;;9.27;2.87;;;14.10;99.90;;;;;;5072861;28;20221;-56
2021/06/14 00:48:06;;;;;;;5.93;2.40;;;14.10;99.90;;;;;;5073104;28;20208;-57
2021/06/14 00:50:37;;;;;;;3.77;2.63;;;14.10;99.90;;;;;;5072890;28;20726;-57
2021/06/14 00:53:05;;;;;;;3.70;2.50;;;14.10;99.90;;;;;;5072877;28;20209;-57
2021/06/14 00:55:32;;;;;;;4.27;2.30;;;14.10;99.90;;;;;;5072508;28;20236;-57
2021/06/14 00:57:58;;;;;;;3.20;2.50;;;14.20;99.90;;;;;;5072846;28;20229;-57
2021/06/14 01:00:25;;;;;;;4.73;2.10;;;14.10;99.90;;;;;;5072610;28;20699;-57
2021/06/14 01:02:52;;;;;;;6.90;2.60;;;14.20;99.90;;;;;;5072659;28;20208;-57
2021/06/14 01:05:20;;;;;;;4.60;2.70;;;14.20;99.90;;;;;;5072469;28;20229;-57
2021/06/14 01:07:47;;;;;;;4.03;2.77;;;14.20;99.90;;;;;;5072205;28;20201;-57
2021/06/14 01:10:15;;;;;;;3.17;2.47;;;14.30;99.90;;;;;;5072652;28;20208;-57
2021/06/14 01:12:52;;;;;;;5.23;2.90;;;14.30;99.90;;;;;;5072558;28;20213;-57
2021/06/14 01:15:20;;;;;;;5.70;2.33;;;14.60;99.90;;;;;;5072214;28;20232;-57
2021/06/14 01:17:53;;;;;;;3.63;2.20;;;14.20;99.90;;;;;;5072115;28;20232;-57
2021/06/14 01:20:49;;;;;;;3.20;2.50;;;14.10;99.90;;;;;;5072173;28;20215;-57
2021/06/14 01:23:30;;;;;;;5.03;2.67;;;14.20;99.90;;;;;;5072204;28;20618;-57
2021/06/14 01:26:00;;;;;;;3.37;2.80;;;14.20;99.90;;;;;;5072123;28;20225;-57
2021/06/14 01:28:31;;;;;;;4.50;2.50;;;14.30;99.90;;;;;;5072460;28;20205;-57
2021/06/14 01:30:59;;;;;;;5.90;2.40;;;14.30;99.90;;;;;;5072225;28;20208;-57
2021/06/14 01:33:28;;;;;;;5.37;2.67;;;14.20;99.90;;;;;;5071841;28;20220;-57
2021/06/14 01:35:58;;;;;;;3.93;2.60;;;14.20;99.90;;;;;;5071987;28;20255;-57
2021/06/14 01:38:28;;;;;;;4.57;2.63;;;14.30;99.90;;;;;;5071907;28;20233;-57
2021/06/14 01:40:58;;;;;;;3.93;2.13;;;14.30;99.90;;;;;;5071878;28;20231;-57
2021/06/14 01:43:27;;;;;;;4.33;2.60;;;14.30;99.90;;;;;;5071706;28;20216;-57
2021/06/14 01:45:59;;;;;;;3.70;2.47;;;14.30;99.90;;;;;;5071804;28;20229;-57
2021/06/14 01:48:28;;;;;;;4.40;2.43;;;14.10;99.90;;;;;;5071984;28;20205;-57
2021/06/14 01:50:55;;;;;;;4.67;2.23;;;14.10;99.90;;;;;;5072185;28;20209;-57
2021/06/14 01:53:22;;;;;;;5.70;2.50;;;14.00;99.90;;;;;;5071192;28;20212;-57
2021/06/14 01:55:51;;;;;;;3.73;2.50;;;14.10;99.90;;;;;;5071853;28;20588;-57
2021/06/14 01:58:18;;;;;;;4.53;2.77;;;14.10;99.90;;;;;;5071559;28;20404;-57
2021/06/14 02:00:46;;;;;;;4.13;2.50;;;14.10;99.90;;;;;;5071556;28;20208;-57
2021/06/14 02:03:16;;;;;;;3.73;2.80;;;14.10;99.90;;;;;;5071615;28;20207;-56
2021/06/14 02:05:45;;;;;;;3.80;2.50;;;14.20;99.90;;;;;;5071725;28;20581;-57
2021/06/14 02:08:14;;;;;;;5.83;2.57;;;14.20;99.90;;;;;;5071099;28;20201;-56
2021/06/14 02:10:41;;;;;;;4.20;2.60;;;14.10;99.90;;;;;;5071461;28;20208;-57
2021/06/14 02:13:08;;;;;;;4.43;2.70;;;14.20;99.90;;;;;;5071142;28;20205;-57
2021/06/14 02:15:36;;;;;;;6.80;2.73;;;14.10;99.90;;;;;;5070983;28;20232;-57
2021/06/14 02:18:04;;;;;;;5.73;3.27;;;14.10;99.90;;;;;;5071424;28;20221;-57
2021/06/14 02:20:32;;;;;;;4.97;2.93;;;14.10;99.90;;;;;;5071239;28;20204;-56
2021/06/14 02:22:59;;;;;;;4.87;2.73;;;14.10;99.90;;;;;;5071180;28;20673;-56
2021/06/14 02:25:26;;;;;;;4.77;2.90;;;14.10;99.90;;;;;;5071103;28;20252;-56
2021/06/14 02:27:53;;;;;;;5.27;2.90;;;14.00;99.90;;;;;;5071089;28;20208;-56
2021/06/14 02:30:23;;;;;;;3.00;2.70;;;13.90;99.90;;;;;;5071008;28;20835;-57
2021/06/14 02:32:51;;;;;;;8.40;3.47;;;13.80;99.90;;;;;;5071334;28;20216;-56
2021/06/14 02:35:18;;;;;;;3.17;2.77;;;13.80;99.90;;;;;;5070770;28;20724;-56
2021/06/14 02:37:48;;;;;;;7.10;3.00;;;13.80;99.90;;;;;;5071152;28;20244;-57
2021/06/14 02:40:17;;;;;;;5.20;3.20;;;13.70;99.90;;;;;;5071214;28;20209;-56
2021/06/14 02:42:45;;;;;;;6.03;2.70;;;13.70;99.90;;;;;;5070965;28;20211;-56
2021/06/14 02:45:14;;;;;;;9.03;3.30;;;13.70;99.90;;;;;;5071142;28;20236;-56
2021/06/14 02:47:41;;;;;;;9.27;2.90;;;13.70;99.90;;;;;;5070965;28;20714;-56
2021/06/14 02:50:09;;;;;;;5.43;3.00;;;13.70;99.90;;;;;;5071204;28;20205;-56
2021/06/14 02:52:39;;;;;;;5.07;3.10;;;13.60;99.90;;;;;;5071644;28;20208;-56
2021/06/14 02:55:12;;;;;;;5.93;3.30;;;13.60;99.90;;;;;;5071179;28;20246;-56
2021/06/14 02:57:40;;;;;;;5.10;3.17;;;13.60;99.90;;;;;;5071176;28;20224;-56
2021/06/14 03:00:08;;;;;;;4.83;2.93;;;13.50;99.90;;;;;;5070974;28;20691;-56
2021/06/14 03:02:36;;;;;;;6.40;3.20;;;13.50;99.90;;;;;;5071289;28;20209;-57
2021/06/14 03:05:04;;;;;;;4.97;2.97;;;13.40;99.90;;;;;;5074853;28;20238;-57
2021/06/14 03:07:31;;;;;;;7.27;3.07;;;13.30;99.90;;;;;;5074869;28;20200;-57
2021/06/14 03:09:58;;;;;;;5.03;3.07;;;13.20;99.90;;;;;;5074816;28;20220;-57
2021/06/14 03:12:27;;;;;;;4.80;3.17;;;13.20;99.90;;;;;;5075036;28;20201;-57
2021/06/14 03:14:56;;;;;;;4.57;3.07;;;13.20;99.90;;;;;;5075022;28;20229;-56
2021/06/14 03:17:23;;;;;;;5.17;3.10;;;13.10;99.90;;;;;;5075043;28;20228;-56
2021/06/14 03:19:52;;;;;;;4.57;2.93;;;13.10;99.90;;;;;;5074621;28;20212;-56
2021/06/14 03:22:19;;;;;;;3.57;2.70;;;13.10;99.90;;;;;;5074505;28;20703;-56
2021/06/14 03:24:46;;;;;;;7.97;3.03;;;13.10;99.90;;;;;;5074292;28;20229;-57
2021/06/14 03:27:15;;;;;;;7.37;3.13;;;13.10;99.90;;;;;;5074352;28;20209;-57
2021/06/14 03:29:46;;;;;;;5.00;3.20;;;13.10;99.90;;;;;;5074254;28;20211;-57
2021/06/14 03:32:14;;;;;;;3.60;2.90;;;13.00;99.90;;;;;;5074417;28;20212;-57
2021/06/14 03:34:41;;;;;;;5.00;3.00;;;13.00;99.90;;;;;;5074061;28;20712;-56
2021/06/14 03:37:09;;;;;;;5.17;2.93;;;13.00;99.90;;;;;;5074242;28;20201;-57
2021/06/14 03:39:36;;;;;;;5.20;3.20;;;13.00;99.90;;;;;;5074087;28;20212;-56
2021/06/14 03:42:02;;;;;;;6.20;3.07;;;13.00;99.90;;;;;;5074002;28;20209;-56
2021/06/14 03:44:29;;;;;;;5.27;3.00;;;12.90;99.90;;;;;;5074157;28;20254;-56
2021/06/14 03:46:57;;;;;;;7.50;4.87;;;12.90;99.90;;;;;;5073975;28;20212;-56
2021/06/14 03:49:24;;;;;;;6.10;3.13;;;12.90;99.90;;;;;;5073845;28;20668;-56
2021/06/14 03:51:50;;;;;;;4.43;2.97;;;13.00;99.90;;;;;;5074026;28;20278;-57
2021/06/14 03:54:17;;;;;;;5.43;3.50;;;12.90;99.90;;;;;;5073801;28;20236;-56
2021/06/14 03:56:44;;;;;;;5.80;3.57;;;13.00;99.90;;;;;;5073729;28;20224;-56
2021/06/14 03:59:11;;;;;;;3.63;2.80;;;13.00;99.90;;;;;;5073634;28;20224;-56
2021/06/14 04:01:37;;;;;;;4.20;2.90;;;13.10;99.90;;;;;;5074216;28;20205;-56
2021/06/14 04:04:13;;;;;;;4.27;3.20;;;13.10;99.90;;;;;;5073682;28;20563;-55
2021/06/14 04:06:40;;;;;;;6.13;2.83;;;13.10;99.90;;;;;;5074135;28;20208;-56
2021/06/14 04:09:07;;;;;;;8.37;3.23;;;13.10;99.90;;;;;;5073697;28;20205;-55
2021/06/14 04:11:34;;;;;;;7.10;2.97;;;13.10;99.90;;;;;;5074160;28;20212;-55
2021/06/14 04:14:01;;;;;;;7.23;2.73;;;13.10;99.90;;;;;;5073871;28;20258;-55
2021/06/14 04:16:27;;;;;;;7.13;3.23;;;13.20;99.90;;;;;;5073486;28;20209;-55
2021/06/14 04:18:54;;;;;;;6.70;3.30;;;13.30;99.90;;;;;;5073993;28;20232;-55
2021/06/14 04:21:22;;;;;;;4.33;3.00;;;13.30;99.90;;;;;;5073602;28;20251;-56
2021/06/14 04:23:49;;;;;;;4.03;3.00;;;13.50;99.90;;;;;;5073080;28;20551;-55
2021/06/14 04:26:15;;;;;;;6.27;3.10;;;13.60;99.90;;;;;;5073152;28;20716;-56
2021/06/14 04:28:42;;;;;;;5.10;3.23;;;13.70;99.90;;;;;;5073111;28;20287;-56
2021/06/14 04:31:09;;;;;;;4.67;2.83;;;13.80;99.90;;;;;;5073334;28;20201;-55
2021/06/14 04:33:36;;;;;;;6.10;3.00;;;14.00;99.90;;;;;;5073369;28;20665;-56
2021/06/14 04:36:04;;;;;;;4.40;2.97;;;14.10;99.90;;;;;;5072853;28;20233;-55
2021/06/14 04:38:32;;;;;;;3.57;2.70;;;14.20;99.90;;;;;;5073105;28;20229;-55
2021/06/14 04:40:59;;;;;;;5.67;3.40;;;14.30;99.90;;;;;;5073029;28;20201;-55
2021/06/14 04:43:25;;;;;;;7.37;2.93;;;14.50;99.90;;;;;;5073409;28;20212;-56
2021/06/14 04:45:52;;;;;;;5.07;2.73;;;14.90;99.90;;;;;;5072645;28;20236;-56
2021/06/14 04:48:19;;;;;;;4.27;2.50;;;16.10;99.90;;;;;;5072813;28;20205;-56
2021/06/14 04:50:46;;;;;;;4.17;2.77;;;18.00;99.90;;;;;;5072836;28;20208;-56
2021/06/14 04:53:13;;;;;;;4.10;2.35;;;20.10;99.90;;;;;;5073148;28;20209;-56
2021/06/14 04:55:41;;;;;;;5.03;2.17;;;21.90;97.00;;;;;;5072400;28;20229;-57
2021/06/14 04:58:08;;;;;;;5.45;2.08;;;23.60;92.50;;;;;;5072426;28;20233;-56
2021/06/14 05:00:35;;;;;;;5.13;2.40;;;24.80;86.50;;;;;;5073314;28;20657;-57
2021/06/14 05:03:01;;;;;;;4.75;2.55;;;25.80;80.00;;;;;;5073130;28;20624;-57
2021/06/14 05:05:28;;;;;;;4.32;2.50;;;26.50;74.60;;;;;;5072637;28;20236;-57
2021/06/14 05:07:55;;;;;;;2.70;1.92;;;27.30;70.30;;;;;;5073235;28;20205;-57
2021/06/14 05:10:22;;;;;;;2.33;1.92;;;28.10;65.00;;;;;;5073046;28;20201;-56
2021/06/14 05:12:50;;;;;;;4.78;2.13;;;28.50;62.30;;;;;;5073139;28;20212;-56
2021/06/14 05:15:17;;;;;;;6.22;2.10;;;28.80;60.30;;;;;;5072567;28;20225;-56
2021/06/14 05:17:45;;;;;;;3.83;2.10;;;29.10;59.00;;;;;;5072362;28;20631;-56
2021/06/14 05:20:12;;;;;;;4.00;2.53;;;29.40;57.80;;;;;;5072304;28;20615;-57
2021/06/14 05:22:39;;;;;;;4.57;2.30;;;29.80;56.30;;;;;;5072570;28;20201;-57
2021/06/14 05:25:06;;;;;;;4.82;2.20;;;30.30;55.20;;;;;;5072322;28;20244;-57
2021/06/14 05:27:33;;;;;;;5.22;2.22;;;30.80;53.70;;;;;;5071301;28;20216;-57
2021/06/14 05:30:01;;;;;;;5.40;2.50;;;31.00;52.60;;;;;;5072436;28;20212;-57
2021/06/14 05:32:28;;;;;;;3.33;2.10;;;30.80;52.70;;;;;;5072180;28;20705;-57
2021/06/14 05:34:55;;;;;;;4.88;2.17;;;30.80;52.70;;;;;;5071807;28;20788;-57
2021/06/14 05:37:21;;;;;;;7.00;2.60;;;31.10;51.60;;;;;;5072058;28;20614;-57
2021/06/14 05:39:48;;;;;;;3.25;2.17;;;31.40;50.70;;;;;;5071337;28;20229;-57
2021/06/14 05:42:15;;;;;;;5.43;2.22;;;31.70;50.50;;;;;;5071586;28;20238;-57
2021/06/14 05:44:41;;;;;;;4.38;2.00;;;32.10;49.40;;;;;;5071410;28;20232;-57
2021/06/14 05:47:09;;;;;;;4.65;2.30;;;32.30;49.20;;;;;;5071733;28;20224;-57
2021/06/14 05:49:36;;;;;;;4.00;2.20;;;32.50;48.10;;;;;;5071691;28;20205;-57
2021/06/14 05:52:03;;;;;;;3.08;2.15;;;32.60;47.60;;;;;;5071683;28;20201;-57
2021/06/14 05:54:30;;;;;;;3.35;2.00;;;33.00;46.90;;;;;;5071339;28;20328;-57
2021/06/14 05:56:57;;;;;;;3.78;2.00;;;33.20;46.10;;;;;;5071519;28;20208;-57
2021/06/14 05:59:23;;;;;;;3.65;1.90;;;33.30;45.90;;;;;;5070931;28;20275;-57
2021/06/14 06:01:50;;;;;;;4.38;1.85;;;33.10;45.90;;;;;;5071462;28;20201;-57
2021/06/14 06:04:19;;;;;;;5.72;2.38;;;32.90;46.30;;;;;;5071348;28;20235;-57
2021/06/14 06:06:46;;;;;;;4.43;2.00;;;33.20;45.90;;;;;;5071272;28;20200;-57
2021/06/14 06:09:13;;;;;;;4.50;2.05;;;33.70;44.70;;;;;;5071015;28;20204;-57
2021/06/14 06:11:39;;;;;;;3.75;2.00;;;34.10;43.90;;;;;;5071053;28;20211;-57
2021/06/14 06:14:06;;;;;;;3.08;1.80;;;34.10;44.20;;;;;;5070826;28;20212;-57
2021/06/14 06:16:33;;;;;;;5.38;3.80;;;34.70;43.10;;;;;;5070892;28;20208;-57
2021/06/14 06:19:00;;;;;;;4.00;2.05;;;35.10;42.40;;;;;;5070610;28;20261;-57
2021/06/14 06:21:28;;;;;;;3.00;1.92;;;35.40;41.70;;;;;;5071093;28;20219;-57
2021/06/14 06:23:55;;;;;;;3.33;2.10;;;35.50;41.40;;;;;;5070909;28;20204;-56
2021/06/14 06:26:22;;;;;;;4.72;2.25;;;35.60;41.50;;;;;;5070968;28;20679;-57
2021/06/14 06:28:49;;;;;;;5.05;2.40;;;35.60;41.20;;;;;;5071175;28;20442;-59
2021/06/14 06:31:16;;;;;;;4.85;2.33;;;35.60;41.10;;;;;;5071326;28;20201;-57
2021/06/14 06:33:42;;;;;;;4.68;2.15;;;36.00;40.10;;;;;;5070809;28;20212;-57
2021/06/14 06:36:10;;;;;;;5.18;2.03;;;36.30;40.10;;;;;;5070708;28;20225;-57
2021/06/14 06:38:39;;;;;;;3.83;2.10;;;36.60;38.90;;;;;;5070479;28;20232;-57
2021/06/14 06:41:07;;;;;;;5.18;2.20;;;36.30;38.70;;;;;;5070938;28;20211;-57
2021/06/14 06:43:35;;;;;;;3.75;2.00;;;35.80;40.20;;;;;;5071002;28;20204;-57
2021/06/14 06:46:02;;;;;;;6.65;2.20;;;35.70;39.50;;;;;;5070905;28;20263;-57
2021/06/14 06:48:29;;;;;;;2.47;2.00;;;36.10;39.20;;;;;;5070769;28;20205;-57
2021/06/14 06:50:56;;;;;;;3.13;2.10;;;36.70;38.70;;;;;;5070946;28;20254;-57
2021/06/14 06:53:23;;;;;;;6.28;2.40;;;37.10;38.00;;;;;;5070654;28;20215;-57
2021/06/14 06:55:51;;;;;;;3.63;1.88;;;37.30;37.40;;;;;;5070309;28;20243;-57
2021/06/14 06:58:18;;;;;;;3.83;2.10;;;37.40;37.30;;;;;;5070401;28;20640;-57
2021/06/14 07:00:47;;;;;;;4.22;2.17;;;37.30;36.90;;;;;;5070844;28;20216;-57
2021/06/14 07:03:14;;;;;;;3.80;2.13;;;37.50;36.30;;;;;;5071243;28;20232;-57
2021/06/14 07:05:41;;;;;;;4.35;2.17;;;37.30;36.50;;;;;;5070343;28;20315;-57
2021/06/14 07:08:08;;;;;;;3.65;1.90;;;36.70;37.20;;;;;;5070670;28;20205;-58
2021/06/14 07:10:34;;;;;;;4.22;2.08;;;36.40;37.30;;;;;;5070914;28;20224;-58
2021/06/14 07:13:02;;;;;;;2.75;2.00;;;35.80;37.70;;;;;;5070967;28;20216;-57
2021/06/14 07:15:30;;;;;;;3.50;1.98;;;35.10;38.90;;;;;;5070406;28;20619;-57
2021/06/14 07:17:57;;;;;;;3.90;2.20;;;35.00;39.00;;;;;;5070623;28;20208;-58
2021/06/14 07:20:24;;;;;;;4.45;2.40;;;34.60;39.60;;;;;;5070460;28;20579;-57
2021/06/14 07:22:51;;;;;;;4.82;2.20;;;34.50;40.10;;;;;;5071202;28;20205;-57
2021/06/14 07:25:18;;;;;;;4.68;2.13;;;34.80;39.80;;;;;;5070781;28;20643;-57
2021/06/14 07:27:45;;;;;;;4.75;2.22;;;35.20;39.20;;;;;;5070746;28;20204;-57
2021/06/14 07:30:15;;;;;;;3.17;2.25;;;35.60;38.70;;;;;;5070348;28;20702;-57
2021/06/14 07:32:42;;;;;;;3.92;1.95;;;36.10;38.10;;;;;;5070265;28;20752;-58
2021/06/14 07:35:11;;;;;;;6.07;2.20;;;35.90;38.00;;;;;;5070302;28;20613;-57
2021/06/14 07:37:38;;;;;;;4.38;1.85;;;35.80;38.50;;;;;;5070554;28;20201;-57
2021/06/14 07:40:07;;;;;;;3.28;2.03;;;36.40;37.70;;;;;;5070368;28;20221;-57
2021/06/14 07:42:34;;;;;;;3.90;2.08;;;36.80;37.10;;;;;;5070472;28;20209;-58
2021/06/14 07:45:01;;;;;;;3.90;2.22;;;37.00;36.80;;;;;;5070135;28;20789;-58
2021/06/14 07:47:29;;;;;;;5.10;2.47;;;37.60;36.40;;;;;;5070311;28;20216;-58
2021/06/14 07:49:56;;;;;;;3.50;1.70;;;37.90;35.90;;;;;;5070620;28;20209;-58
2021/06/14 07:52:22;;;;;;;5.07;1.60;;;37.80;36.00;;;;;;5074051;28;20207;-57
2021/06/14 07:54:50;;;;;;;6.93;2.20;;;37.80;35.80;;;;;;5101842;22;20239;-55
2021/06/14 07:57:16;;;;;;;4.47;2.05;;;37.60;36.00;;;;;;5094257;28;20227;-57
2021/06/14 07:59:43;;;;;;;4.03;2.05;;;37.90;35.40;;;;;;5093796;28;20220;-54
2021/06/14 08:02:10;;;;;;;3.15;2.13;;;38.00;35.10;;;;;;5093692;28;20667;-56
2021/06/14 08:04:38;;;;;;;6.80;2.30;;;38.40;35.00;;;;;;5093758;28;20593;-54
2021/06/14 08:07:06;;;;;;;6.03;2.00;;;38.70;34.40;;;;;;5093718;28;20220;-56
2021/06/14 08:09:33;;;;;;;3.75;2.72;;;38.50;34.70;;;;;;5093527;28;20625;-55
2021/06/14 08:11:59;;;;;;;4.00;1.98;;;38.80;34.30;;;;;;5093549;28;20242;-55
2021/06/14 08:14:26;;;;;;;7.65;2.63;;;39.30;33.70;;;;;;5093327;28;20755;-55
2021/06/14 08:16:53;;;;;;;5.55;2.10;;;39.80;33.30;;;;;;5093566;28;20574;-55
2021/06/14 08:19:29;;;;;;;3.97;2.03;;;40.00;32.90;;;;;;5093503;28;20231;-55
2021/06/14 08:22:21;;;;;;;3.40;1.95;;;39.90;33.50;;;;;;5093449;28;20212;-55
2021/06/14 08:25:05;;;;;;;3.33;1.70;;;40.20;32.90;;;;;;5093236;28;20320;-56
2021/06/14 08:27:37;;;;;;;3.72;1.95;;;40.20;32.60;;;;;;5093520;28;20271;-62
2021/06/14 08:30:07;;;;;;;4.68;2.28;;;40.00;32.70;;;;;;5093385;28;20200;-56
2021/06/14 08:32:33;;;;;;;5.15;2.08;;;40.10;32.60;;;;;;5094016;28;20325;-55
2021/06/14 08:35:00;;;;;;;6.22;2.25;;;40.10;32.30;;;;;;5093597;28;20220;-56
2021/06/14 08:37:28;;;;;;;5.53;2.17;;;39.70;33.00;;;;;;5093186;28;20203;-55
2021/06/14 08:39:55;;;;;;;5.38;2.13;;;39.70;33.20;;;;;;5093182;28;20724;-55
2021/06/14 08:42:21;;;;;;;5.57;2.20;;;39.80;32.60;;;;;;5093187;28;20212;-56
2021/06/14 08:44:48;;;;;;;6.05;2.42;;;39.70;32.70;;;;;;5092870;28;20227;-55
2021/06/14 08:47:17;;;;;;;3.10;1.85;;;39.10;32.80;;;;;;5093562;28;20215;-57
2021/06/14 08:49:45;;;;;;;4.50;2.00;;;38.10;34.20;;;;;;5093422;28;20203;-55
2021/06/14 08:52:12;;;;;;;4.15;1.90;;;37.30;35.30;;;;;;5092762;28;20208;-56
2021/06/14 08:54:43;;;;;;;4.70;2.22;;;35.90;36.20;;;;;;5092214;28;20715;-55
2021/06/14 08:57:10;;;;;;;2.85;1.77;;;33.90;38.00;;;;;;5092956;28;20205;-55
2021/06/14 08:59:37;;;;;;;4.22;2.10;;;32.30;39.70;;;;;;5092611;28;20220;-56
2021/06/14 09:02:04;;;;;;;6.43;2.17;;;30.80;42.00;;;;;;5092460;28;20281;-56
2021/06/14 09:04:32;;;;;;;3.28;2.15;;;29.70;43.00;;;;;;5092606;28;20204;-55
2021/06/14 09:06:59;;;;;;;3.00;1.85;;;28.70;44.60;;;;;;5092769;28;20205;-55
2021/06/14 09:09:28;;;;;;;7.80;2.10;;;27.60;46.60;;;;;;5092843;28;20205;-56
2021/06/14 09:11:58;;;;;;;4.70;2.13;;;27.00;47.90;;;;;;5093048;28;20235;-55
2021/06/14 09:14:27;;;;;;;4.65;2.35;;;26.70;48.10;;;;;;5092542;28;20210;-56
2021/06/14 09:16:58;;;;;;;3.33;2.22;;;26.50;48.20;;;;;;5092565;28;20231;-56
2021/06/14 09:19:29;;;;;;;5.15;2.58;;;26.40;48.70;;;;;;5092144;28;20224;-55
2021/06/14 09:21:56;;;;;;;3.63;2.20;;;25.90;49.90;;;;;;5092178;28;20220;-57
2021/06/14 09:24:24;;;;;;;4.82;2.10;;;25.60;51.40;;;;;;5091828;28;20215;-55
2021/06/14 09:26:51;;;;;;;3.88;1.95;;;25.40;51.10;;;;;;5092116;28;20266;-56
2021/06/14 09:29:26;;;;;;;3.95;2.15;;;25.40;51.40;;;;;;5092092;28;20200;-56
2021/06/14 09:31:54;;;;;;;3.72;2.42;;;25.40;52.10;;;;;;5091975;28;20204;-55
2021/06/14 09:34:33;;;;;;;3.53;1.90;;;25.30;52.60;;;;;;5091779;28;20613;-54
2021/06/14 09:37:01;;;;;;;3.42;2.17;;;25.30;52.50;;;;;;5091038;28;20475;-57
2021/06/14 09:39:28;;;;;;;7.57;2.40;;;25.40;52.40;;;;;;5091829;28;20259;-57
2021/06/14 09:41:55;;;;;;;4.32;2.20;;;25.40;52.80;;;;;;5092345;28;20204;-56
2021/06/14 09:44:30;;;;;;;4.57;2.35;;;25.30;53.20;;;;;;5091538;28;20205;-56
2021/06/14 09:47:01;;;;;;;3.90;2.25;;;25.20;53.30;;;;;;5092186;28;20204;-57
2021/06/14 09:49:28;;;;;;;5.47;2.05;;;25.20;53.70;;;;;;5091766;28;20208;-56
2021/06/14 09:51:56;;;;;;;5.78;2.35;;;25.20;53.70;;;;;;5091844;28;20204;-56
2021/06/14 09:54:27;;;;;;;5.97;4.07;;;25.10;53.50;;;;;;5091378;28;20231;-56
2021/06/14 09:56:54;;;;;;;5.20;2.30;;;25.10;53.70;;;;;;5091652;28;20200;-57
2021/06/14 09:59:26;;;;;;;4.30;2.45;;;25.20;53.70;;;;;;5091658;28;20208;-56
2021/06/14 10:02:05;;;;;;;3.75;2.00;;;25.30;53.80;;;;;;5091751;28;20211;-56
2021/06/14 10:04:31;;;;;;;4.80;2.17;;;25.20;53.50;;;;;;5091654;28;20215;-55
2021/06/14 10:07:10;;;;;;;3.13;2.13;;;25.20;54.20;;;;;;5091596;28;20213;-55
2021/06/14 10:09:40;;;;;;;3.80;1.92;;;25.20;53.80;;;;;;5089846;28;20576;-59
2021/06/14 10:12:20;;;;;;;3.28;2.53;;;25.40;53.90;;;;;;5070753;28;20288;-58
2021/06/14 10:14:54;;;;;;;3.45;2.03;;;25.70;53.70;;;;;;5070710;28;20228;-60
2021/06/14 10:17:34;;;;;;;5.22;2.30;;;25.80;53.30;;;;;;5071015;28;20241;-59
2021/06/14 10:20:11;;;;;;;4.43;2.30;;;25.70;54.10;;;;;;5070637;28;20233;-60
2021/06/14 10:22:39;;;;;;;5.57;2.45;;;25.70;53.70;;;;;;5071416;28;20205;-59
2021/06/14 10:25:08;;;;;;;5.68;2.17;;;25.70;53.70;;;;;;5070985;28;20236;-59
2021/06/14 10:27:35;;;;;;;7.18;2.67;;;25.80;53.50;;;;;;5071118;28;20672;-60
2021/06/14 10:30:02;;;;;;;5.50;2.20;;;25.90;53.90;;;;;;5070886;28;20204;-58
2021/06/14 10:32:29;;;;;;;3.15;2.10;;;26.00;53.00;;;;;;5070751;28;20208;-65
2021/06/14 10:34:58;;;;;;;5.40;2.25;;;26.20;52.00;;;;;;5070940;28;20233;-59
2021/06/14 10:37:27;;;;;;;3.55;2.17;;;26.30;52.60;;;;;;5071041;28;20209;-61
2021/06/14 10:39:56;;;;;;;2.45;2.00;;;26.50;52.10;;;;;;5070469;28;20641;-60
2021/06/14 10:42:23;;;;;;;3.38;1.92;;;26.70;51.80;;;;;;5070503;28;20249;-61
2021/06/14 10:44:50;;;;;;;4.20;1.95;;;26.70;51.00;;;;;;5070424;28;20224;-59
2021/06/14 10:47:17;;;;;;;4.85;1.77;;;26.70;50.50;;;;;;5070527;28;20216;-65
2021/06/14 10:49:44;;;;;;;4.57;2.25;;;26.60;52.50;;;;;;5070636;28;20197;-60
2021/06/14 10:52:12;;;;;;;4.80;1.90;;;26.50;52.00;;;;;;5070645;28;20678;-57
2021/06/14 10:54:41;;;;;;;3.88;2.20;;;26.50;52.40;;;;;;5070049;28;20240;-58
2021/06/14 10:57:10;;;;;;;5.00;2.28;;;26.60;52.30;;;;;;5070658;28;20470;-57
2021/06/14 10:59:37;;;;;;;4.50;2.20;;;26.80;52.10;;;;;;5070698;28;20211;-56
2021/06/14 11:02:07;;;;;;;7.18;2.20;;;26.90;50.70;;;;;;5070495;28;20255;-57
2021/06/14 11:04:34;;;;;;;4.22;2.30;;;26.90;50.50;;;;;;5070553;28;20229;-56
2021/06/14 11:07:01;;;;;;;5.68;2.20;;;27.00;50.00;;;;;;5070533;28;20212;-57
2021/06/14 11:09:39;;;;;;;4.75;2.00;;;27.00;50.60;;;;;;5070353;28;20628;-58
2021/06/14 11:12:08;;;;;;;4.68;2.28;;;27.10;51.10;;;;;;5070163;28;20220;-57
2021/06/14 11:14:37;;;;;;;6.53;2.20;;;27.10;51.00;;;;;;5070508;28;20297;-56
2021/06/14 11:17:19;;;;;;;3.28;2.00;;;27.00;51.40;;;;;;5070433;28;20205;-57
2021/06/14 11:19:48;;;;;;;4.05;1.83;;;27.20;51.00;;;;;;5070639;28;20209;-58
2021/06/14 11:22:15;;;;;;;4.00;2.20;;;27.30;51.10;;;;;;5070398;28;20205;-58
2021/06/14 11:24:44;;;;;;;6.00;3.67;;;27.50;50.80;;;;;;5070321;28;20312;-58
2021/06/14 11:27:11;;;;;;;6.38;2.88;;;27.70;50.00;;;;;;5074539;28;20228;-57
2021/06/14 11:29:46;;;;;;;2.85;1.88;;;27.90;48.90;;;;;;5074207;28;20231;-56
2021/06/14 11:32:19;;;;;;;4.95;2.00;;;28.10;49.30;;;;;;5074599;28;20204;-55
2021/06/14 11:34:48;;;;;;;2.92;1.98;;;28.20;48.70;;;;;;5074272;28;20314;-55
2021/06/14 11:37:15;;;;;;;3.13;2.03;;;28.10;49.20;;;;;;5074671;28;20593;-57
2021/06/14 11:39:44;;;;;;;5.38;2.10;;;27.90;49.20;;;;;;5073933;28;20208;-55
2021/06/14 11:42:14;;;;;;;4.28;2.25;;;28.00;49.90;;;;;;5074070;28;20247;-57
2021/06/14 11:44:51;;;;;;;4.15;2.15;;;28.10;48.60;;;;;;5073596;28;20225;-57
2021/06/14 11:47:20;;;;;;;3.20;1.90;;;28.20;48.70;;;;;;5073729;28;20212;-55
2021/06/14 11:49:48;;;;;;;5.13;2.15;;;28.30;48.70;;;;;;5073938;28;20236;-57
2021/06/14 11:52:21;;;;;;;3.72;2.00;;;28.40;48.80;;;;;;5073644;28;20209;-57
2021/06/14 11:54:54;;;;;;;7.18;4.88;;;28.20;48.70;;;;;;5073389;28;20233;-54
2021/06/14 11:57:27;;;;;;;2.30;1.60;;;28.10;49.50;;;;;;5073650;28;20220;-54
2021/06/14 11:59:54;;;;;;;4.40;1.70;;;28.10;48.30;;;;;;5073127;28;20232;-55
2021/06/14 12:02:22;;;;;;;3.25;2.00;;;28.20;48.30;;;;;;5073517;28;20204;-54
2021/06/14 12:04:54;;;;;;;3.50;1.90;;;28.30;48.00;;;;;;5073418;28;20291;-56
2021/06/14 12:07:31;;;;;;;2.75;1.67;;;28.50;47.10;;;;;;5073555;28;20205;-55
2021/06/14 12:10:02;;;;;;;4.90;1.67;;;28.70;46.80;;;;;;5073227;28;20247;-57
2021/06/14 12:12:28;;;;;;;1.88;1.52;;;28.80;46.20;;;;;;5073262;28;20703;-55
2021/06/14 12:14:57;;;;;;;4.20;2.10;;;29.00;46.40;;;;;;5073165;28;20221;-56
2021/06/14 12:17:31;;;;;;;2.08;1.75;;;29.00;46.30;;;;;;5073145;28;20673;-55
2021/06/14 12:19:59;;;;;;;4.20;1.60;;;29.10;46.00;;;;;;5073125;28;20216;-54
2021/06/14 12:22:28;;;;;;;3.40;2.25;;;29.20;45.10;;;;;;5073105;28;20205;-55
2021/06/14 12:24:55;;;;;;;2.67;1.70;;;29.30;45.30;;;;;;5072911;28;20708;-57
2021/06/14 12:27:23;;;;;;;2.25;1.38;;;29.30;45.10;;;;;;5073007;28;20584;-55
2021/06/14 12:30:00;;;;;;;2.85;1.77;;;29.30;45.70;;;;;;5073459;28;20201;-55
2021/06/14 12:32:30;;;;;;;3.53;1.92;;;29.10;45.90;;;;;;5073170;28;20338;-56
2021/06/14 12:35:00;;;;;;;3.53;1.42;;;29.00;45.80;;;;;;5072751;28;20320;-55
2021/06/14 12:37:27;;;;;;;5.22;2.10;;;28.90;46.20;;;;;;5072283;28;20315;-55
2021/06/14 12:39:59;;;;;;;2.35;1.40;;;28.90;45.30;;;;;;5072683;28;20709;-55
2021/06/14 12:42:28;;;;;;;4.13;1.98;;;28.80;45.60;;;;;;5072760;28;20207;-56
2021/06/14 12:45:00;;;;;;;6.13;1.50;;;28.60;46.50;;;;;;5072638;28;20325;-55
2021/06/14 12:47:27;;;;;;;5.93;1.58;;;28.60;46.70;;;;;;5072809;28;20208;-56
2021/06/14 12:49:55;;;;;;;3.33;1.63;;;28.70;46.70;;;;;;5072573;28;20204;-55
2021/06/14 12:52:24;;;;;;;4.25;1.83;;;28.80;46.70;;;;;;5072884;28;20200;-57
2021/06/14 12:54:51;;;;;;;3.03;2.10;;;29.00;46.30;;;;;;5072440;28;20228;-56